Plaisance, Maurice

01:14 MUT le 28 août 2014 (GMT +0400)
Mauritius International | Change Station
CLOSE
Current Station
Aéroport
Location: Plaisance,
Altitude: 187 ft
Stations météo à proximité

Alt. 187 ft 20.43 °S, 57.68 °E | Updated 14 minutes ago

Partly Cloudy
Partiellement nuageux
64 ° F
Paraît 64 ° F
N
5
Vent Variable Vent de NO

Aujourd'hui
Haut(e) -- | Bas -- ° F
--% Risque de précip.
Hier
Haut(e) -- | Bas -- ° F
Precip. -- pouce
6:21 AM 5:59 PM
Lune montante, 5% visible
Pression 30.06 pouce
Visibilité 6.2 Miles terrestres
Nuages Peu 1700 ft
Point de rosée 63 ° F
Humidité 94%
Précipitations 0.00 pouce
Profondeur de la couche neigeuse Non disponible.
UV 0 sur 12
Pollen Non disponible.
Qualité de l'air Non disponible.
Flu Activity Non disponible.
METAR FIMP 272100Z 32004KT 9999 FEW017 18/17 Q1018

More Conditions Fewer Conditions

Pression 30.06 pouce
Visibilité 6.2 Miles terrestres
Nuages Peu 1700 ft
Point de rosée 63 ° F
Humidité 94%
Précipitations 0.00 pouce
Profondeur de la couche neigeuse Non disponible.
UV 0 sur 12
Pollen Non disponible.
Qualité de l'air Non disponible.
Flu Activity Non disponible.
METAR FIMP 272100Z 32004KT 9999 FEW017 18/17 Q1018

More Conditions Fewer Conditions

10-Day Weather Forecast

Almanac

Astronomie

Aug. 28, 2014 Lever Coucher
Temps réel 06:21 MUT 17:59 MUT
Crépuscule civil 05:59 MUT 18:22 MUT
Crépuscule nautique 05:33 MUT 18:47 MUT
Crépuscule astronomique 05:07 MUT 19:13 MUT
Lune 07:49 MUT (8/28) 20:21 MUT (8/28)
Durée de lumière visible 12h 22m
Longueur du jour
11h 37m
Tomorrow will be 1m 4s longer.
Lune montante, 5% of the Moon is Illuminated
août 27
Lune montante
Sep 2
Premier quartier
Sep 8
Pleine lune
Sep 15
Dernier quartier
Sep 24
Nouveau

Les extrêmes de température d’hier

Country Highs Country Lows

Community

WunderPhotos

Upload Photos

1,747,789 Photos téléchargées !

Nearby

Qualité de l'air

Not available.

Épaisseur de neige

Not available.

Activité sismique

Ville Distance Mag. Time & Date
No recent earthquake activity has been reported nearby.
Minimum magnitude displayed is 2.5.

Températures des eaux côtières

Lieu Température
Aucun rapport de station

Stations météo à proximité